Αρχική σελίδα
METAR-TAF:

METAR-TAF

Αεροδρόμια :

Nadi, Φίτζι

γεωγραφικό πλάτος: 17-45S, γεωγραφικό μήκος: 177-27E, υψόμετρο: 13 μ

Παρών καιρός

Η αναφορά έγινε 19 λεπτά πριν, στις 05:00 UTC
Άνεμος 10 kt από Ν/NA
Θερμοκρασία 28°C
Υγρασία 58%
Πίεση 1007 hPa
Ορατότητα 10 χλμ και άνω
Διάσπαρτα νέφη σε ύψος 3000 πόδια
Διάσπαρτα νέφη σε ύψος 5000 πόδια

METAR: NFFN 110500Z 15010KT 9999 SCT030 SCT050 28/19 Q1007 NOSIG

Χρόνος: 18:19 (05:19 UTC)

Πρόγνωση Καιρού

Η αναφορά έγινε 7 ώρες και 7 λεπτά πριν, στις 22:12 UTC
Η πρόγνωση ισχύει από τις 11 στις 00 UTC έως τις 11 στις 24 UTC
Άνεμος 8 kt από ΝA
Ορατότητα 10 χλμ και άνω
Διάσπαρτα νέφη σε ύψος 3000 πόδια
Διάσπαρτα νέφη σε ύψος 30000 πόδια

TAF: NFFN 102212Z 1100/1124 13008KT 9999 SCT030 SCT300

Μετεωρολογικές αναφορές και προγνώσεις για περισσότερα από 4000 αεροδρόμια (δελτία METAR και TAF).

Οι διαθέσιμοι σταθμοί απεικονίζονται στο χάρτη με κίτρινες και κόκκινες κουκκίδες.

Μετακινήστε το ποντίκι πάνω από τις κουκκίδες για να δείτε το όνομα του σταθμού.

Στη συνέχεια, κάντε κλικ για να δείτε τις μετεωρολογικές αναφορές και τις προγνώσεις καιρού.

Για να αλλάξετε το χάρτη: κάντε κλικ στα πράσινα κουμπιά με τον μαύρο σταυρό για να ζουμάρετε, στο πράσινο κουμπί με την παύλα για να αφαιρέσετε το ζουμ ή στα πράσινα βέλη για να αντιπαραβάλλετε χάρτες.


METAR-TAF: